createdAt,value
2022-09-14T00:01:27.080Z,16.90
2022-09-14T00:04:13.009Z,17.48
2022-09-14T00:06:40.321Z,17.40
2022-09-14T00:09:08.226Z,17.25
2022-09-14T00:11:37.183Z,17.00
2022-09-14T00:14:05.462Z,17.20
2022-09-14T00:16:36.045Z,17.60
2022-09-14T00:19:08.031Z,17.50
2022-09-14T00:21:39.351Z,17.23
2022-09-14T00:24:07.404Z,17.20
2022-09-14T00:26:34.822Z,17.10
2022-09-14T00:29:05.980Z,17.40
2022-09-14T00:31:35.852Z,17.17
2022-09-14T00:34:03.889Z,17.27
2022-09-14T00:36:32.396Z,17.23
2022-09-14T00:39:00.810Z,16.90
2022-09-14T00:41:32.328Z,16.98
2022-09-14T00:44:03.089Z,17.58
2022-09-14T00:46:38.839Z,17.30
2022-09-14T00:49:10.149Z,16.90
2022-09-14T00:51:42.034Z,17.63
2022-09-14T00:54:09.109Z,17.83
2022-09-14T00:56:36.603Z,17.73
2022-09-14T00:59:19.158Z,17.48
2022-09-14T01:01:49.095Z,17.00
2022-09-14T01:04:17.357Z,17.55
2022-09-14T01:06:50.101Z,17.48
2022-09-14T01:09:38.819Z,16.98
2022-09-14T01:12:53.549Z,18.50
2022-09-14T01:15:24.718Z,18.10
2022-09-14T01:17:51.658Z,19.00
2022-09-14T01:20:44.782Z,19.27
2022-09-14T01:23:50.770Z,18.80
2022-09-14T01:26:36.009Z,18.80
2022-09-14T01:29:06.136Z,18.80
2022-09-14T01:31:57.147Z,19.23
2022-09-14T01:34:54.388Z,19.63
2022-09-14T01:37:27.383Z,19.02
2022-09-14T01:40:06.961Z,20.30
2022-09-14T01:42:35.485Z,20.38
2022-09-14T01:45:09.547Z,19.25
2022-09-14T01:47:46.995Z,20.33
2022-09-14T01:50:39.830Z,19.88
2022-09-14T01:53:58.136Z,19.65
2022-09-14T01:56:35.423Z,18.58
2022-09-14T01:59:18.269Z,19.67
2022-09-14T02:01:52.968Z,20.08
2022-09-14T02:04:30.938Z,19.45
2022-09-14T02:06:58.181Z,20.40
2022-09-14T02:09:26.988Z,19.90
2022-09-14T02:11:55.541Z,20.70
2022-09-14T02:14:23.334Z,20.08
2022-09-14T02:16:50.304Z,20.30
2022-09-14T02:19:23.065Z,20.75
2022-09-14T02:21:51.274Z,20.93
2022-09-14T02:24:18.948Z,20.10
2022-09-14T02:26:48.811Z,25.23
2022-09-14T02:29:15.904Z,23.83
2022-09-14T02:32:07.445Z,25.60
2022-09-14T02:34:57.825Z,29.20
2022-09-14T02:37:44.328Z,31.15
2022-09-14T02:40:34.657Z,27.40
2022-09-14T02:43:13.387Z,30.80
2022-09-14T02:45:46.183Z,28.50
2022-09-14T02:48:22.082Z,31.55
2022-09-14T02:51:19.143Z,29.70
2022-09-14T02:53:53.715Z,30.13
2022-09-14T02:56:21.363Z,31.05
2022-09-14T02:58:48.421Z,33.97
2022-09-14T03:01:18.500Z,33.45
2022-09-14T03:03:45.552Z,32.83
2022-09-14T03:06:12.511Z,33.53
2022-09-14T03:08:39.767Z,33.08
2022-09-14T03:11:07.481Z,34.72
2022-09-14T03:13:35.904Z,37.90
2022-09-14T03:16:11.668Z,52.45
2022-09-14T03:18:39.151Z,53.92
2022-09-14T03:21:08.256Z,36.67
2022-09-14T03:23:40.245Z,35.97
2022-09-14T03:26:09.373Z,40.78
2022-09-14T03:28:36.906Z,38.47
2022-09-14T03:31:05.953Z,37.03
2022-09-14T03:33:32.958Z,37.13
2022-09-14T03:36:00.472Z,39.80
2022-09-14T03:38:30.223Z,38.20
2022-09-14T03:41:00.646Z,35.20
2022-09-14T03:43:27.614Z,34.75
2022-09-14T03:45:54.563Z,36.78
2022-09-14T03:48:21.472Z,37.22
2022-09-14T03:50:48.393Z,35.70
2022-09-14T03:53:15.335Z,35.90
2022-09-14T03:55:42.287Z,38.88
2022-09-14T03:58:09.183Z,36.42
2022-09-14T04:00:36.626Z,40.55
2022-09-14T04:03:03.836Z,37.47
2022-09-14T04:05:30.837Z,38.13
2022-09-14T04:07:57.793Z,39.28
2022-09-14T04:10:24.710Z,39.28
2022-09-14T04:12:51.782Z,39.60
2022-09-14T04:15:18.738Z,39.03
2022-09-14T04:17:45.965Z,38.60
2022-09-14T04:20:12.954Z,39.58
2022-09-14T04:22:39.997Z,39.38
2022-09-14T04:25:07.233Z,37.17
2022-09-14T04:27:34.189Z,40.60
2022-09-14T04:30:01.102Z,41.33
2022-09-14T04:32:33.487Z,37.90
2022-09-14T04:35:01.292Z,41.65
2022-09-14T04:37:32.023Z,40.17
2022-09-14T04:39:59.941Z,39.50
2022-09-14T04:42:26.946Z,44.50
2022-09-14T04:44:53.850Z,45.92
2022-09-14T04:47:20.794Z,40.15
2022-09-14T04:49:47.710Z,44.20
2022-09-14T04:52:14.698Z,48.28
2022-09-14T04:54:41.651Z,40.65
2022-09-14T04:57:08.587Z,47.63
2022-09-14T04:59:35.551Z,43.35
2022-09-14T05:02:02.535Z,47.08
2022-09-14T05:04:29.506Z,45.47
2022-09-14T05:06:56.443Z,43.00
2022-09-14T05:09:23.399Z,44.13
2022-09-14T05:11:51.922Z,45.75
2022-09-14T05:14:18.954Z,43.90
2022-09-14T05:16:46.079Z,43.28
2022-09-14T05:19:15.738Z,42.22
2022-09-14T05:21:42.726Z,41.35
2022-09-14T05:24:16.842Z,42.08
2022-09-14T05:26:44.998Z,39.58
2022-09-14T05:29:17.472Z,39.88
2022-09-14T05:31:45.135Z,40.90
2022-09-14T05:34:13.044Z,41.13
2022-09-14T05:36:40.522Z,39.33
2022-09-14T05:39:08.551Z,37.75
2022-09-14T05:41:35.734Z,36.92
2022-09-14T05:44:02.896Z,37.38
2022-09-14T05:46:29.939Z,38.92
2022-09-14T05:48:57.040Z,41.85
2022-09-14T05:51:26.010Z,37.97
2022-09-14T05:53:56.507Z,37.70
2022-09-14T05:56:25.230Z,38.17
2022-09-14T05:58:52.902Z,38.58
2022-09-14T06:01:25.429Z,36.92
2022-09-14T06:03:57.699Z,36.80
2022-09-14T06:06:25.195Z,35.03
2022-09-14T06:08:54.307Z,35.35
2022-09-14T06:11:24.292Z,36.03
2022-09-14T06:13:52.075Z,35.10
2022-09-14T06:16:20.842Z,35.15
2022-09-14T06:18:49.654Z,35.72
2022-09-14T06:21:19.623Z,33.55
2022-09-14T06:23:47.897Z,33.97
2022-09-14T06:26:15.561Z,31.73
2022-09-14T06:28:42.790Z,32.92
2022-09-14T06:31:13.067Z,34.13
2022-09-14T06:33:44.663Z,32.72
2022-09-14T06:36:14.571Z,31.65
2022-09-14T06:38:42.481Z,32.78
2022-09-14T06:41:12.525Z,32.15
2022-09-14T06:43:42.192Z,35.50
2022-09-14T06:46:16.447Z,33.67
2022-09-14T06:51:22.246Z,31.35
2022-09-14T06:53:50.753Z,30.63
2022-09-14T06:56:18.921Z,30.17
2022-09-14T06:58:46.055Z,28.23
2022-09-14T07:01:16.430Z,28.17
2022-09-14T07:03:44.760Z,26.90
2022-09-14T07:06:15.154Z,26.02
2022-09-14T07:08:42.831Z,24.75
2022-09-14T07:11:12.151Z,23.88
2022-09-14T07:13:39.164Z,21.98
2022-09-14T07:16:07.665Z,22.00
2022-09-14T07:18:35.900Z,22.70
2022-09-14T07:21:06.046Z,21.73
2022-09-14T07:23:33.769Z,21.52
2022-09-14T07:26:05.398Z,21.80
2022-09-14T07:28:33.124Z,21.90
2022-09-14T07:31:01.165Z,22.35
2022-09-14T07:33:28.932Z,22.15
2022-09-14T07:36:04.826Z,21.98
2022-09-14T07:38:50.969Z,21.60
2022-09-14T07:41:19.035Z,22.02
2022-09-14T07:43:49.305Z,22.15
2022-09-14T07:46:16.315Z,20.80
2022-09-14T07:48:43.792Z,21.40
2022-09-14T07:51:12.026Z,21.13
2022-09-14T07:53:44.653Z,21.02
2022-09-14T07:56:13.634Z,21.23
2022-09-14T07:58:41.598Z,20.45
2022-09-14T08:01:15.328Z,20.25
2022-09-14T08:03:46.837Z,20.73
2022-09-14T08:06:16.472Z,20.55
2022-09-14T08:08:46.005Z,19.90
2022-09-14T08:11:18.650Z,19.60
2022-09-14T08:13:57.448Z,21.33
2022-09-14T08:16:25.753Z,19.85
2022-09-14T08:18:57.852Z,19.98
2022-09-14T08:21:25.452Z,19.27
2022-09-14T08:23:52.867Z,19.80
2022-09-14T08:26:22.315Z,19.05
2022-09-14T08:28:51.056Z,18.83
2022-09-14T08:31:21.840Z,19.45
2022-09-14T08:33:54.661Z,19.13
2022-09-14T08:36:23.505Z,19.27
2022-09-14T08:38:51.323Z,18.95
2022-09-14T08:41:37.024Z,19.23
2022-09-14T08:44:31.150Z,21.20
2022-09-14T08:47:02.937Z,19.73
2022-09-14T08:49:52.131Z,19.40
2022-09-14T08:52:43.634Z,19.88
2022-09-14T08:55:25.919Z,19.42
2022-09-14T08:58:22.106Z,18.65
2022-09-14T09:00:54.895Z,17.67
2022-09-14T09:03:24.846Z,18.60
2022-09-14T09:06:13.965Z,18.58
2022-09-14T09:09:15.084Z,18.77
2022-09-14T09:11:48.730Z,20.27
2022-09-14T09:14:54.008Z,18.52
2022-09-14T09:17:30.066Z,19.45
2022-09-14T09:20:10.616Z,18.27
2022-09-14T09:22:44.007Z,17.98
2022-09-14T09:25:23.670Z,17.92
2022-09-14T09:27:54.665Z,18.52
2022-09-14T09:30:21.672Z,18.80
2022-09-14T09:32:48.738Z,19.25
2022-09-14T09:35:21.147Z,18.42
2022-09-14T09:37:48.147Z,18.98
2022-09-14T09:40:31.057Z,18.35
2022-09-14T09:43:33.342Z,18.33
2022-09-14T09:46:06.919Z,18.27
2022-09-14T09:48:40.244Z,19.17
2022-09-14T09:51:15.401Z,17.80
2022-09-14T09:53:51.539Z,18.35
2022-09-14T09:56:24.387Z,19.23
2022-09-14T09:58:52.221Z,18.17
2022-09-14T10:01:30.001Z,18.63
2022-09-14T10:04:18.531Z,18.48
2022-09-14T10:06:50.774Z,18.00
2022-09-14T10:09:23.564Z,18.35
2022-09-14T10:12:02.615Z,18.10
2022-09-14T10:14:33.469Z,20.00
2022-09-14T10:17:22.154Z,17.80
2022-09-14T10:19:52.406Z,17.67
2022-09-14T10:22:37.852Z,20.80
2022-09-14T10:25:23.438Z,18.27
2022-09-14T10:27:56.504Z,18.50
2022-09-14T10:30:39.786Z,18.67
2022-09-14T10:33:13.274Z,17.63
2022-09-14T10:36:17.641Z,17.75
2022-09-14T10:38:53.112Z,18.27
2022-09-14T10:41:35.094Z,18.15
2022-09-14T10:44:05.493Z,18.30
2022-09-14T10:46:52.961Z,18.00
2022-09-14T10:49:33.095Z,17.85
2022-09-14T10:52:00.107Z,17.80
2022-09-14T10:54:50.951Z,18.58
2022-09-14T10:57:47.130Z,18.00
2022-09-14T11:00:20.099Z,18.23
2022-09-14T11:02:59.229Z,19.90
2022-09-14T11:05:28.534Z,17.75
2022-09-14T11:08:05.818Z,18.20
2022-09-14T11:11:00.827Z,19.35
2022-09-14T11:13:33.496Z,18.40
2022-09-14T11:16:37.710Z,18.67
2022-09-14T11:19:21.287Z,20.48
2022-09-14T11:22:19.565Z,18.10
2022-09-14T11:25:21.062Z,19.08
2022-09-14T11:27:59.284Z,18.60
2022-09-14T11:30:39.611Z,18.77
2022-09-14T11:33:16.505Z,19.25
2022-09-14T11:35:48.682Z,19.90
2022-09-14T11:38:25.288Z,18.67
2022-09-14T11:41:15.269Z,19.60
2022-09-14T11:43:57.614Z,19.13
2022-09-14T11:46:49.555Z,19.00
2022-09-14T11:49:49.893Z,18.52
2022-09-14T11:52:21.115Z,18.90
2022-09-14T11:54:49.959Z,18.42
2022-09-14T11:57:37.295Z,18.98
2022-09-14T12:00:20.183Z,19.20
2022-09-14T12:03:00.363Z,18.45
2022-09-14T12:05:31.214Z,19.67
2022-09-14T12:08:00.008Z,19.08
2022-09-14T12:10:27.273Z,18.73
2022-09-14T12:12:57.172Z,18.38
2022-09-14T12:15:27.168Z,17.98
2022-09-14T12:18:23.978Z,18.65
2022-09-14T12:21:07.494Z,18.95
2022-09-14T12:23:42.044Z,18.40
2022-09-14T12:26:12.127Z,18.63
2022-09-14T12:28:39.066Z,18.23
2022-09-14T12:31:06.101Z,18.58
2022-09-14T12:33:33.074Z,18.42
2022-09-14T12:36:07.906Z,18.02
2022-09-14T12:38:38.227Z,18.38
2022-09-14T12:41:11.382Z,18.95
2022-09-14T12:43:41.188Z,19.87
2022-09-14T12:46:20.451Z,18.98
2022-09-14T12:48:47.481Z,18.67
2022-09-14T12:51:32.841Z,18.88
2022-09-14T12:54:09.266Z,19.42
2022-09-14T12:57:05.251Z,18.75
2022-09-14T12:59:47.274Z,19.88
2022-09-14T13:02:39.098Z,19.00
2022-09-14T13:05:08.216Z,19.27
2022-09-14T13:07:39.522Z,19.23
2022-09-14T13:10:07.769Z,19.48
2022-09-14T13:12:38.973Z,18.83
2022-09-14T13:15:15.791Z,18.65
2022-09-14T13:18:03.890Z,19.70
2022-09-14T13:20:35.584Z,24.05
2022-09-14T13:23:02.983Z,19.45
2022-09-14T13:25:37.508Z,18.90
2022-09-14T13:28:15.711Z,18.77
2022-09-14T13:30:43.346Z,19.23
2022-09-14T13:33:17.655Z,18.92
2022-09-14T13:35:50.982Z,18.02
2022-09-14T13:38:36.258Z,18.27
2022-09-14T13:41:10.557Z,19.15
2022-09-14T13:43:37.790Z,17.73
2022-09-14T13:46:10.845Z,17.98
2022-09-14T13:48:42.163Z,18.50
2022-09-14T13:51:11.273Z,19.00
2022-09-14T13:53:42.089Z,18.75
2022-09-14T13:56:28.254Z,18.20
2022-09-14T13:59:07.474Z,18.90
2022-09-14T14:01:46.806Z,18.80
2022-09-14T14:04:39.926Z,18.38
2022-09-14T14:07:27.721Z,19.45
2022-09-14T14:09:57.645Z,18.10
2022-09-14T14:12:28.914Z,18.15
2022-09-14T14:15:05.599Z,17.70
2022-09-14T14:17:37.985Z,17.83
2022-09-14T14:20:30.431Z,17.48
2022-09-14T14:22:59.201Z,17.30
2022-09-14T14:25:33.319Z,17.35
2022-09-14T14:28:03.417Z,17.75
2022-09-14T14:30:31.123Z,18.02
2022-09-14T14:32:59.382Z,19.52
2022-09-14T14:35:31.346Z,18.83
2022-09-14T14:37:59.105Z,17.90
2022-09-14T14:40:30.991Z,19.02
2022-09-14T14:42:59.481Z,18.88
2022-09-14T14:45:27.489Z,18.15
2022-09-14T14:47:55.929Z,17.58
2022-09-14T14:50:33.581Z,17.35
2022-09-14T14:53:01.539Z,17.15
2022-09-14T14:55:31.312Z,17.67
2022-09-14T14:58:04.075Z,17.25
2022-09-14T15:00:33.625Z,17.25
2022-09-14T15:03:00.854Z,16.33
2022-09-14T15:05:27.944Z,16.70
2022-09-14T15:07:56.219Z,17.25
2022-09-14T15:10:25.297Z,17.67
2022-09-14T15:12:52.517Z,17.20
2022-09-14T15:15:25.850Z,17.90
2022-09-14T15:17:53.602Z,17.37
2022-09-14T15:20:21.565Z,16.80
2022-09-14T15:22:49.294Z,17.45
2022-09-14T15:25:17.893Z,17.48
2022-09-14T15:27:44.880Z,17.08
2022-09-14T15:30:12.878Z,17.13
2022-09-14T15:32:40.747Z,17.65
2022-09-14T15:35:11.287Z,18.48
2022-09-14T15:37:38.276Z,17.98
2022-09-14T15:40:06.160Z,19.15
2022-09-14T15:42:33.383Z,18.25
2022-09-14T15:45:00.358Z,18.27
2022-09-14T15:47:27.298Z,18.33
2022-09-14T15:49:54.238Z,17.67
2022-09-14T15:52:21.594Z,18.63
2022-09-14T15:54:49.344Z,17.70
2022-09-14T15:57:16.391Z,17.80
2022-09-14T15:59:43.961Z,17.45
2022-09-14T16:02:12.527Z,17.15
2022-09-14T16:04:39.981Z,17.48
2022-09-14T16:07:11.171Z,17.33
2022-09-14T16:09:40.167Z,17.42
2022-09-14T16:12:08.990Z,17.13
2022-09-14T16:14:36.243Z,17.33
2022-09-14T16:17:04.077Z,17.42
2022-09-14T16:19:31.323Z,16.55
2022-09-14T16:21:58.249Z,16.08
2022-09-14T16:24:25.939Z,15.95
2022-09-14T16:26:53.509Z,15.40
2022-09-14T16:29:21.970Z,15.75
2022-09-14T16:31:49.358Z,15.65
2022-09-14T16:34:34.238Z,15.43
2022-09-14T16:37:01.309Z,15.57
2022-09-14T16:39:34.907Z,15.45
2022-09-14T16:42:02.214Z,15.25
2022-09-14T16:44:30.913Z,15.50
2022-09-14T16:46:58.553Z,15.43
2022-09-14T16:49:27.775Z,15.60
2022-09-14T16:51:56.161Z,14.95
2022-09-14T16:54:24.711Z,15.45
2022-09-14T16:56:52.258Z,16.02
2022-09-14T16:59:20.678Z,15.73
2022-09-14T17:01:52.077Z,15.00
2022-09-14T17:04:22.193Z,15.13
2022-09-14T17:06:51.869Z,15.18
2022-09-14T17:09:27.618Z,15.35
2022-09-14T17:11:55.774Z,15.43
2022-09-14T17:14:26.688Z,15.40
2022-09-14T17:16:53.863Z,15.95
2022-09-14T17:19:21.118Z,15.90
2022-09-14T17:21:48.385Z,15.63
2022-09-14T17:24:17.436Z,15.70
2022-09-14T17:26:44.681Z,15.07
2022-09-14T17:29:12.274Z,15.35
2022-09-14T17:31:42.284Z,14.63
2022-09-14T17:34:11.542Z,15.90
2022-09-14T17:36:38.906Z,14.68
2022-09-14T17:39:11.531Z,15.23
2022-09-14T17:41:40.524Z,15.10
2022-09-14T17:44:10.074Z,15.10
2022-09-14T17:46:45.899Z,14.82
2022-09-14T17:49:18.359Z,15.15
2022-09-14T17:51:45.465Z,15.32
2022-09-14T17:54:12.903Z,14.95
2022-09-14T17:56:39.945Z,15.38
2022-09-14T17:59:12.741Z,15.20
2022-09-14T18:01:40.433Z,15.07
2022-09-14T18:04:10.886Z,15.13
2022-09-14T18:06:40.532Z,14.52
2022-09-14T18:09:13.630Z,14.70
2022-09-14T18:11:41.050Z,15.10
2022-09-14T18:14:12.699Z,14.63
2022-09-14T18:16:40.451Z,14.25
2022-09-14T18:19:07.698Z,14.85
2022-09-14T18:21:34.787Z,14.40
2022-09-14T18:24:02.067Z,14.70
2022-09-14T18:26:29.398Z,14.43
2022-09-14T18:28:58.684Z,14.70
2022-09-14T18:31:26.382Z,14.90
2022-09-14T18:34:01.284Z,14.50
2022-09-14T18:36:29.853Z,15.20
2022-09-14T18:38:58.568Z,14.43
2022-09-14T18:41:26.411Z,14.90
2022-09-14T18:43:53.557Z,14.48
2022-09-14T18:46:25.736Z,14.38
2022-09-14T18:48:56.815Z,15.10
2022-09-14T18:51:24.610Z,14.48
2022-09-14T18:54:05.906Z,14.65
2022-09-14T18:56:34.942Z,14.60
2022-09-14T18:59:04.111Z,14.98
2022-09-14T19:01:31.654Z,15.00
2022-09-14T19:03:59.084Z,15.45
2022-09-14T19:06:26.518Z,15.15
2022-09-14T19:08:54.013Z,15.50
2022-09-14T19:11:24.120Z,15.00
2022-09-14T19:14:00.582Z,14.95
2022-09-14T19:16:29.520Z,14.93
2022-09-14T19:18:56.821Z,15.07
2022-09-14T19:21:29.530Z,15.27
2022-09-14T19:24:01.838Z,15.75
2022-09-14T19:26:33.142Z,15.50
2022-09-14T19:29:01.944Z,15.35
2022-09-14T19:31:30.879Z,15.27
2022-09-14T19:34:00.014Z,15.07
2022-09-14T19:36:27.818Z,15.20
2022-09-14T19:38:57.375Z,14.77
2022-09-14T19:41:25.264Z,15.35
2022-09-14T19:43:52.316Z,15.18
2022-09-14T19:46:23.119Z,14.88
2022-09-14T19:48:50.714Z,14.85
2022-09-14T19:51:21.179Z,14.57
2022-09-14T19:53:50.395Z,15.82
2022-09-14T19:56:20.905Z,15.52
2022-09-14T19:58:50.542Z,15.30
2022-09-14T20:01:19.537Z,16.30
2022-09-14T20:03:48.027Z,14.77
2022-09-14T20:06:23.408Z,14.93
2022-09-14T20:08:56.704Z,14.50
2022-09-14T20:11:25.513Z,14.77
2022-09-14T20:13:57.021Z,14.77
2022-09-14T20:16:30.622Z,15.43
2022-09-14T20:18:59.947Z,15.57
2022-09-14T20:21:28.125Z,15.35
2022-09-14T20:24:16.279Z,14.95
2022-09-14T20:26:47.733Z,14.82
2022-09-14T20:29:15.973Z,15.10
2022-09-14T20:31:43.287Z,15.65
2022-09-14T20:34:10.892Z,15.05
2022-09-14T20:36:38.064Z,15.07
2022-09-14T20:39:05.575Z,14.55
2022-09-14T20:41:34.475Z,15.05
2022-09-14T20:44:01.761Z,15.35
2022-09-14T20:46:31.989Z,15.07
2022-09-14T20:48:59.138Z,14.80
2022-09-14T20:51:26.774Z,15.70
2022-09-14T20:53:56.246Z,15.38
2022-09-14T20:56:27.149Z,15.18
2022-09-14T20:58:56.428Z,14.75
2022-09-14T21:01:25.088Z,15.27
2022-09-14T21:03:52.622Z,15.00
2022-09-14T21:06:24.943Z,14.68
2022-09-14T21:08:52.310Z,14.88
2022-09-14T21:11:21.961Z,14.98
2022-09-14T21:13:49.985Z,14.85
2022-09-14T21:16:19.219Z,15.68
2022-09-14T21:18:47.684Z,15.32
2022-09-14T21:21:17.490Z,14.45
2022-09-14T21:23:44.666Z,14.98
2022-09-14T21:26:12.745Z,15.15
2022-09-14T21:28:41.114Z,15.40
2022-09-14T21:31:09.413Z,14.77
2022-09-14T21:33:39.067Z,15.30
2022-09-14T21:36:12.358Z,15.73
2022-09-14T21:38:39.643Z,15.88
2022-09-14T21:41:08.535Z,15.55
2022-09-14T21:43:41.056Z,16.20
2022-09-14T21:46:09.821Z,15.77
2022-09-14T21:48:37.617Z,15.80
2022-09-14T21:51:20.251Z,16.27
2022-09-14T21:53:51.353Z,15.63
2022-09-14T21:56:19.647Z,15.43
2022-09-14T21:58:51.501Z,15.80
2022-09-14T22:01:18.981Z,15.50
2022-09-14T22:03:46.430Z,15.40
2022-09-14T22:06:16.379Z,15.18
2022-09-14T22:08:43.973Z,15.45
2022-09-14T22:11:22.806Z,15.10
2022-09-14T22:13:54.962Z,15.48
2022-09-14T22:16:23.383Z,15.40
2022-09-14T22:18:56.350Z,15.43
2022-09-14T22:21:25.190Z,15.50
2022-09-14T22:23:55.960Z,14.90
2022-09-14T22:26:23.617Z,15.85
2022-09-14T22:28:53.718Z,14.95
2022-09-14T22:31:22.921Z,15.93
2022-09-14T22:33:50.903Z,15.90
2022-09-14T22:36:18.348Z,15.48
2022-09-14T22:38:45.743Z,16.05
2022-09-14T22:41:18.288Z,15.25
2022-09-14T22:43:46.275Z,15.57
2022-09-14T22:46:13.523Z,15.43
2022-09-14T22:48:41.018Z,16.15
2022-09-14T22:51:16.463Z,14.98
2022-09-14T22:53:43.623Z,15.45
2022-09-14T22:56:16.066Z,15.25
2022-09-14T22:58:43.687Z,15.45
2022-09-14T23:01:15.933Z,15.15
2022-09-14T23:03:43.382Z,15.35
2022-09-14T23:06:10.743Z,15.35
2022-09-14T23:08:38.229Z,15.45
2022-09-14T23:11:07.576Z,15.00
2022-09-14T23:13:42.198Z,15.45
2022-09-14T23:16:14.512Z,15.20
2022-09-14T23:18:42.320Z,15.18
2022-09-14T23:21:09.831Z,15.68
2022-09-14T23:23:38.381Z,15.30
2022-09-14T23:26:09.319Z,15.57
2022-09-14T23:28:37.271Z,15.13
2022-09-14T23:31:05.383Z,16.10
2022-09-14T23:33:32.643Z,15.88
2022-09-14T23:35:59.739Z,15.80
2022-09-14T23:38:27.264Z,16.65
2022-09-14T23:40:54.249Z,15.63
2022-09-14T23:43:21.478Z,16.10
2022-09-14T23:45:48.926Z,15.95
2022-09-14T23:48:16.053Z,15.90
2022-09-14T23:50:43.510Z,15.95
2022-09-14T23:53:10.725Z,16.73
2022-09-14T23:55:37.888Z,15.40
2022-09-14T23:58:05.194Z,15.93
